sensor_id;sensor_type;location;lat;lon;timestamp;temperature;humidity
42141;DHT22;27809;51.864;5.646;2023-03-01T00:00:53;-1.30;86.50
42141;DHT22;27809;51.864;5.646;2023-03-01T00:03:18;-1.30;85.50
42141;DHT22;27809;51.864;5.646;2023-03-01T00:05:45;-1.30;83.60
42141;DHT22;27809;51.864;5.646;2023-03-01T00:08:11;-1.20;83.40
42141;DHT22;27809;51.864;5.646;2023-03-01T00:10:36;-1.20;82.90
42141;DHT22;27809;51.864;5.646;2023-03-01T00:13:02;-1.20;79.70
42141;DHT22;27809;51.864;5.646;2023-03-01T00:15:30;-1.30;82.90
42141;DHT22;27809;51.864;5.646;2023-03-01T00:17:56;-1.50;85.20
42141;DHT22;27809;51.864;5.646;2023-03-01T00:20:22;-1.60;86.00
42141;DHT22;27809;51.864;5.646;2023-03-01T00:22:48;-1.50;86.30
42141;DHT22;27809;51.864;5.646;2023-03-01T00:25:13;-1.50;85.30
42141;DHT22;27809;51.864;5.646;2023-03-01T00:27:39;-1.60;87.10
42141;DHT22;27809;51.864;5.646;2023-03-01T00:30:05;-1.50;88.00
42141;DHT22;27809;51.864;5.646;2023-03-01T00:32:30;-1.70;86.50
42141;DHT22;27809;51.864;5.646;2023-03-01T00:34:56;-1.60;88.50
42141;DHT22;27809;51.864;5.646;2023-03-01T00:37:23;-1.60;85.00
42141;DHT22;27809;51.864;5.646;2023-03-01T00:39:48;-1.50;83.90
42141;DHT22;27809;51.864;5.646;2023-03-01T00:42:14;-1.50;82.80
42141;DHT22;27809;51.864;5.646;2023-03-01T00:44:39;-1.60;88.90
42141;DHT22;27809;51.864;5.646;2023-03-01T00:47:05;-1.80;90.20
42141;DHT22;27809;51.864;5.646;2023-03-01T00:49:31;-1.70;91.10
42141;DHT22;27809;51.864;5.646;2023-03-01T00:51:57;-1.70;90.50
42141;DHT22;27809;51.864;5.646;2023-03-01T00:54:22;-1.70;90.40
42141;DHT22;27809;51.864;5.646;2023-03-01T00:56:48;-1.70;88.90
42141;DHT22;27809;51.864;5.646;2023-03-01T00:59:13;-1.90;90.70
42141;DHT22;27809;51.864;5.646;2023-03-01T01:01:39;-1.80;92.30
42141;DHT22;27809;51.864;5.646;2023-03-01T01:04:10;-1.70;92.00
42141;DHT22;27809;51.864;5.646;2023-03-01T01:06:44;-1.80;91.30
42141;DHT22;27809;51.864;5.646;2023-03-01T01:09:13;-1.70;90.80
42141;DHT22;27809;51.864;5.646;2023-03-01T01:11:46;-1.70;90.30
42141;DHT22;27809;51.864;5.646;2023-03-01T01:14:12;-1.80;91.30
42141;DHT22;27809;51.864;5.646;2023-03-01T01:16:38;-1.90;92.60
42141;DHT22;27809;51.864;5.646;2023-03-01T01:19:04;-2.00;93.20
42141;DHT22;27809;51.864;5.646;2023-03-01T01:21:29;-2.20;94.40
42141;DHT22;27809;51.864;5.646;2023-03-01T01:23:55;-2.20;95.40
42141;DHT22;27809;51.864;5.646;2023-03-01T01:26:24;-2.00;95.70
42141;DHT22;27809;51.864;5.646;2023-03-01T01:28:50;-1.90;94.40
42141;DHT22;27809;51.864;5.646;2023-03-01T01:31:16;-2.00;92.50
42141;DHT22;27809;51.864;5.646;2023-03-01T01:33:42;-2.00;93.30
42141;DHT22;27809;51.864;5.646;2023-03-01T01:36:08;-1.80;93.40
42141;DHT22;27809;51.864;5.646;2023-03-01T01:38:35;-1.90;91.80
42141;DHT22;27809;51.864;5.646;2023-03-01T01:41:01;-1.90;93.10
42141;DHT22;27809;51.864;5.646;2023-03-01T01:43:30;-1.80;93.10
42141;DHT22;27809;51.864;5.646;2023-03-01T01:46:03;-1.90;92.40
42141;DHT22;27809;51.864;5.646;2023-03-01T01:48:37;-2.10;94.20
42141;DHT22;27809;51.864;5.646;2023-03-01T01:51:13;-2.10;96.50
42141;DHT22;27809;51.864;5.646;2023-03-01T01:53:40;-2.20;96.50
42141;DHT22;27809;51.864;5.646;2023-03-01T01:56:08;-2.30;97.30
42141;DHT22;27809;51.864;5.646;2023-03-01T01:58:34;-2.40;97.90
42141;DHT22;27809;51.864;5.646;2023-03-01T02:01:01;-2.30;98.90
42141;DHT22;27809;51.864;5.646;2023-03-01T02:03:31;-2.10;98.00
42141;DHT22;27809;51.864;5.646;2023-03-01T02:06:12;-2.20;96.60
42141;DHT22;27809;51.864;5.646;2023-03-01T02:08:40;-2.30;97.70
42141;DHT22;27809;51.864;5.646;2023-03-01T02:11:08;-2.50;98.40
42141;DHT22;27809;51.864;5.646;2023-03-01T02:13:34;-2.40;99.40
42141;DHT22;27809;51.864;5.646;2023-03-01T02:16:13;-2.40;99.20
42141;DHT22;27809;51.864;5.646;2023-03-01T02:18:41;-2.40;98.90
42141;DHT22;27809;51.864;5.646;2023-03-01T02:23:59;-2.30;98.10
42141;DHT22;27809;51.864;5.646;2023-03-01T02:26:42;-2.10;98.90
42141;DHT22;27809;51.864;5.646;2023-03-01T02:29:10;-2.10;96.40
42141;DHT22;27809;51.864;5.646;2023-03-01T02:31:35;-2.30;95.70
42141;DHT22;27809;51.864;5.646;2023-03-01T02:34:20;-2.50;96.20
42141;DHT22;27809;51.864;5.646;2023-03-01T02:36:49;-2.40;96.60
42141;DHT22;27809;51.864;5.646;2023-03-01T02:39:27;-2.50;96.20
42141;DHT22;27809;51.864;5.646;2023-03-01T02:41:55;-2.30;96.10
42141;DHT22;27809;51.864;5.646;2023-03-01T02:44:21;-2.40;95.50
42141;DHT22;27809;51.864;5.646;2023-03-01T02:46:50;-2.50;95.60
42141;DHT22;27809;51.864;5.646;2023-03-01T02:49:23;-2.60;97.30
42141;DHT22;27809;51.864;5.646;2023-03-01T02:55:03;-2.60;98.10
42141;DHT22;27809;51.864;5.646;2023-03-01T02:57:32;-2.50;97.80
42141;DHT22;27809;51.864;5.646;2023-03-01T03:00:03;-2.70;98.40
42141;DHT22;27809;51.864;5.646;2023-03-01T03:02:34;-2.50;99.70
42141;DHT22;27809;51.864;5.646;2023-03-01T03:05:09;-2.60;98.10
42141;DHT22;27809;51.864;5.646;2023-03-01T03:07:40;-2.70;98.90
42141;DHT22;27809;51.864;5.646;2023-03-01T03:10:09;-2.70;99.40
42141;DHT22;27809;51.864;5.646;2023-03-01T03:12:36;-2.40;98.30
42141;DHT22;27809;51.864;5.646;2023-03-01T03:15:03;-2.60;97.80
42141;DHT22;27809;51.864;5.646;2023-03-01T03:17:36;-2.50;99.60
42141;DHT22;27809;51.864;5.646;2023-03-01T03:20:04;-2.50;98.80
42141;DHT22;27809;51.864;5.646;2023-03-01T03:22:30;-2.50;98.80
42141;DHT22;27809;51.864;5.646;2023-03-01T03:24:56;-2.50;98.80
42141;DHT22;27809;51.864;5.646;2023-03-01T03:27:22;-2.50;97.90
42141;DHT22;27809;51.864;5.646;2023-03-01T03:29:47;-2.60;98.80
42141;DHT22;27809;51.864;5.646;2023-03-01T03:32:13;-2.60;98.80
42141;DHT22;27809;51.864;5.646;2023-03-01T03:34:38;-2.50;98.60
42141;DHT22;27809;51.864;5.646;2023-03-01T03:37:04;-2.60;99.00
42141;DHT22;27809;51.864;5.646;2023-03-01T03:39:49;-2.60;99.30
42141;DHT22;27809;51.864;5.646;2023-03-01T03:42:15;-2.50;98.50
42141;DHT22;27809;51.864;5.646;2023-03-01T03:44:40;-2.50;98.50
42141;DHT22;27809;51.864;5.646;2023-03-01T03:47:06;-2.50;98.30
42141;DHT22;27809;51.864;5.646;2023-03-01T03:49:31;-2.50;98.20
42141;DHT22;27809;51.864;5.646;2023-03-01T03:51:57;-2.50;97.80
42141;DHT22;27809;51.864;5.646;2023-03-01T03:54:22;-2.40;97.80
42141;DHT22;27809;51.864;5.646;2023-03-01T03:56:48;-2.40;98.00
42141;DHT22;27809;51.864;5.646;2023-03-01T03:59:13;-2.50;97.10
42141;DHT22;27809;51.864;5.646;2023-03-01T04:01:39;-2.60;96.50
42141;DHT22;27809;51.864;5.646;2023-03-01T04:04:04;-2.50;98.70
42141;DHT22;27809;51.864;5.646;2023-03-01T04:06:31;-2.50;98.50
42141;DHT22;27809;51.864;5.646;2023-03-01T04:08:56;-2.60;98.70
42141;DHT22;27809;51.864;5.646;2023-03-01T04:11:24;-2.60;99.00
42141;DHT22;27809;51.864;5.646;2023-03-01T04:13:55;-2.70;98.70
42141;DHT22;27809;51.864;5.646;2023-03-01T04:16:21;-2.60;98.40
42141;DHT22;27809;51.864;5.646;2023-03-01T04:18:47;-2.60;97.90
42141;DHT22;27809;51.864;5.646;2023-03-01T04:21:12;-2.70;97.80
42141;DHT22;27809;51.864;5.646;2023-03-01T04:23:39;-2.60;97.90
42141;DHT22;27809;51.864;5.646;2023-03-01T04:26:06;-2.60;97.60
42141;DHT22;27809;51.864;5.646;2023-03-01T04:28:35;-2.60;96.80
42141;DHT22;27809;51.864;5.646;2023-03-01T04:31:16;-2.60;97.00
42141;DHT22;27809;51.864;5.646;2023-03-01T04:33:45;-2.70;96.20
42141;DHT22;27809;51.864;5.646;2023-03-01T04:36:13;-2.70;98.00
42141;DHT22;27809;51.864;5.646;2023-03-01T04:38:39;-2.80;99.00
42141;DHT22;27809;51.864;5.646;2023-03-01T04:41:07;-2.80;99.50
42141;DHT22;27809;51.864;5.646;2023-03-01T04:43:33;-2.70;98.80
42141;DHT22;27809;51.864;5.646;2023-03-01T04:46:03;-2.80;98.20
42141;DHT22;27809;51.864;5.646;2023-03-01T04:48:31;-2.80;98.00
42141;DHT22;27809;51.864;5.646;2023-03-01T04:50:59;-2.90;98.80
42141;DHT22;27809;51.864;5.646;2023-03-01T04:53:25;-2.90;99.90
42141;DHT22;27809;51.864;5.646;2023-03-01T04:55:51;-3.00;99.90
42141;DHT22;27809;51.864;5.646;2023-03-01T04:58:16;-3.00;99.90
42141;DHT22;27809;51.864;5.646;2023-03-01T05:00:42;-3.00;99.90
42141;DHT22;27809;51.864;5.646;2023-03-01T05:03:08;-2.90;99.90
42141;DHT22;27809;51.864;5.646;2023-03-01T05:05:38;-2.90;99.90
42141;DHT22;27809;51.864;5.646;2023-03-01T05:08:08;-2.90;99.90
42141;DHT22;27809;51.864;5.646;2023-03-01T05:10:35;-2.80;99.90
42141;DHT22;27809;51.864;5.646;2023-03-01T05:13:03;-2.90;99.90
42141;DHT22;27809;51.864;5.646;2023-03-01T05:15:30;-2.90;99.90
42141;DHT22;27809;51.864;5.646;2023-03-01T05:17:57;-3.00;99.90
42141;DHT22;27809;51.864;5.646;2023-03-01T05:20:28;-3.10;99.90
42141;DHT22;27809;51.864;5.646;2023-03-01T05:22:57;-3.00;99.90
42141;DHT22;27809;51.864;5.646;2023-03-01T05:25:24;-2.90;99.90
42141;DHT22;27809;51.864;5.646;2023-03-01T05:27:50;-2.90;99.90
42141;DHT22;27809;51.864;5.646;2023-03-01T05:30:16;-2.90;99.90
42141;DHT22;27809;51.864;5.646;2023-03-01T05:32:45;-2.90;99.90
42141;DHT22;27809;51.864;5.646;2023-03-01T05:35:12;-2.90;99.90
42141;DHT22;27809;51.864;5.646;2023-03-01T05:37:45;-3.00;99.90
42141;DHT22;27809;51.864;5.646;2023-03-01T05:40:17;-2.90;99.90
42141;DHT22;27809;51.864;5.646;2023-03-01T05:42:52;-2.80;99.90
42141;DHT22;27809;51.864;5.646;2023-03-01T05:45:18;-2.80;99.90
42141;DHT22;27809;51.864;5.646;2023-03-01T05:47:44;-2.90;99.90
42141;DHT22;27809;51.864;5.646;2023-03-01T05:50:13;-3.20;99.90
42141;DHT22;27809;51.864;5.646;2023-03-01T05:52:39;-3.10;99.90
42141;DHT22;27809;51.864;5.646;2023-03-01T05:55:05;-3.10;99.90
42141;DHT22;27809;51.864;5.646;2023-03-01T05:57:31;-3.20;99.90
42141;DHT22;27809;51.864;5.646;2023-03-01T05:59:56;-3.20;99.90
42141;DHT22;27809;51.864;5.646;2023-03-01T06:02:22;-3.10;99.90
42141;DHT22;27809;51.864;5.646;2023-03-01T06:04:47;-3.00;99.90
42141;DHT22;27809;51.864;5.646;2023-03-01T06:07:13;-3.10;99.90
42141;DHT22;27809;51.864;5.646;2023-03-01T06:09:38;-3.00;99.90
42141;DHT22;27809;51.864;5.646;2023-03-01T06:12:04;-2.90;99.90
42141;DHT22;27809;51.864;5.646;2023-03-01T06:14:30;-2.90;99.70
42141;DHT22;27809;51.864;5.646;2023-03-01T06:16:55;-2.80;99.90
42141;DHT22;27809;51.864;5.646;2023-03-01T06:19:21;-2.80;99.40
42141;DHT22;27809;51.864;5.646;2023-03-01T06:21:46;-2.90;98.90
42141;DHT22;27809;51.864;5.646;2023-03-01T06:24:12;-2.90;99.90
42141;DHT22;27809;51.864;5.646;2023-03-01T06:26:37;-2.80;99.80
42141;DHT22;27809;51.864;5.646;2023-03-01T06:29:03;-2.80;99.50
42141;DHT22;27809;51.864;5.646;2023-03-01T06:31:28;-2.70;98.90
42141;DHT22;27809;51.864;5.646;2023-03-01T06:33:54;-2.90;98.40
42141;DHT22;27809;51.864;5.646;2023-03-01T06:36:19;-2.90;99.50
42141;DHT22;27809;51.864;5.646;2023-03-01T06:38:47;-2.90;99.90
42141;DHT22;27809;51.864;5.646;2023-03-01T06:41:12;-2.80;99.90
42141;DHT22;27809;51.864;5.646;2023-03-01T06:43:38;-2.80;99.90
42141;DHT22;27809;51.864;5.646;2023-03-01T06:46:04;0.10;99.90
42141;DHT22;27809;51.864;5.646;2023-03-01T06:48:30;-1.80;93.40
42141;DHT22;27809;51.864;5.646;2023-03-01T06:50:58;-2.40;95.30
42141;DHT22;27809;51.864;5.646;2023-03-01T06:53:24;-2.70;97.20
42141;DHT22;27809;51.864;5.646;2023-03-01T06:55:57;-2.70;99.10
42141;DHT22;27809;51.864;5.646;2023-03-01T06:58:24;-2.90;99.90
42141;DHT22;27809;51.864;5.646;2023-03-01T07:00:49;-2.90;99.90
42141;DHT22;27809;51.864;5.646;2023-03-01T07:03:15;-2.80;99.90
42141;DHT22;27809;51.864;5.646;2023-03-01T07:05:41;-2.50;99.90
42141;DHT22;27809;51.864;5.646;2023-03-01T07:08:06;-2.50;99.90
42141;DHT22;27809;51.864;5.646;2023-03-01T07:10:32;-2.50;99.90
42141;DHT22;27809;51.864;5.646;2023-03-01T07:12:58;-2.40;99.90
42141;DHT22;27809;51.864;5.646;2023-03-01T07:15:24;-2.30;99.90
42141;DHT22;27809;51.864;5.646;2023-03-01T07:17:51;-2.30;99.90
42141;DHT22;27809;51.864;5.646;2023-03-01T07:20:18;-2.30;99.90
42141;DHT22;27809;51.864;5.646;2023-03-01T07:22:43;-2.20;99.90
42141;DHT22;27809;51.864;5.646;2023-03-01T07:25:10;-2.20;99.90
42141;DHT22;27809;51.864;5.646;2023-03-01T07:27:36;-2.20;99.90
42141;DHT22;27809;51.864;5.646;2023-03-01T07:30:02;-2.00;99.90
42141;DHT22;27809;51.864;5.646;2023-03-01T07:32:28;-1.80;99.90
42141;DHT22;27809;51.864;5.646;2023-03-01T07:34:53;-1.70;99.90
42141;DHT22;27809;51.864;5.646;2023-03-01T07:37:19;-1.70;99.90
42141;DHT22;27809;51.864;5.646;2023-03-01T07:39:44;-1.50;99.90
42141;DHT22;27809;51.864;5.646;2023-03-01T07:42:10;-1.50;99.90
42141;DHT22;27809;51.864;5.646;2023-03-01T07:44:35;-1.40;99.90
42141;DHT22;27809;51.864;5.646;2023-03-01T07:47:02;-1.20;99.90
42141;DHT22;27809;51.864;5.646;2023-03-01T07:49:27;-1.20;99.90
42141;DHT22;27809;51.864;5.646;2023-03-01T07:51:53;-1.10;99.90
42141;DHT22;27809;51.864;5.646;2023-03-01T07:54:18;-1.00;99.90
42141;DHT22;27809;51.864;5.646;2023-03-01T07:56:44;-0.80;99.90
42141;DHT22;27809;51.864;5.646;2023-03-01T07:59:10;-0.60;99.90
42141;DHT22;27809;51.864;5.646;2023-03-01T08:01:35;-0.30;99.90
42141;DHT22;27809;51.864;5.646;2023-03-01T08:04:01;-0.10;99.90
42141;DHT22;27809;51.864;5.646;2023-03-01T08:06:27;0.10;99.80
42141;DHT22;27809;51.864;5.646;2023-03-01T08:08:53;0.40;98.80
42141;DHT22;27809;51.864;5.646;2023-03-01T08:11:20;0.80;97.60
42141;DHT22;27809;51.864;5.646;2023-03-01T08:13:47;1.00;96.60
42141;DHT22;27809;51.864;5.646;2023-03-01T08:16:15;1.10;95.60
42141;DHT22;27809;51.864;5.646;2023-03-01T08:18:41;1.20;94.00
42141;DHT22;27809;51.864;5.646;2023-03-01T08:21:09;1.30;92.90
42141;DHT22;27809;51.864;5.646;2023-03-01T08:23:35;1.50;92.60
42141;DHT22;27809;51.864;5.646;2023-03-01T08:26:09;1.70;91.40
42141;DHT22;27809;51.864;5.646;2023-03-01T08:28:35;1.90;90.40
42141;DHT22;27809;51.864;5.646;2023-03-01T08:31:01;12.70;54.90
42141;DHT22;27809;51.864;5.646;2023-03-01T08:33:27;18.50;8.30
42141;DHT22;27809;51.864;5.646;2023-03-01T08:36:01;19.20;1.00
42141;DHT22;27809;51.864;5.646;2023-03-01T08:38:26;9.50;2.60
42141;DHT22;27809;51.864;5.646;2023-03-01T08:40:52;6.70;13.50
42141;DHT22;27809;51.864;5.646;2023-03-01T08:43:17;6.50;19.90
42141;DHT22;27809;51.864;5.646;2023-03-01T08:45:43;7.20;26.90
42141;DHT22;27809;51.864;5.646;2023-03-01T08:48:08;8.90;15.30
42141;DHT22;27809;51.864;5.646;2023-03-01T08:50:34;9.00;14.50
42141;DHT22;27809;51.864;5.646;2023-03-01T08:52:59;9.20;13.60
42141;DHT22;27809;51.864;5.646;2023-03-01T08:55:25;13.20;30.70
42141;DHT22;27809;51.864;5.646;2023-03-01T08:57:50;12.20;4.90
42141;DHT22;27809;51.864;5.646;2023-03-01T09:00:16;11.00;7.20
42141;DHT22;27809;51.864;5.646;2023-03-01T09:02:42;11.10;7.10
42141;DHT22;27809;51.864;5.646;2023-03-01T09:05:08;11.50;6.00
42141;DHT22;27809;51.864;5.646;2023-03-01T09:07:34;11.70;5.60
42141;DHT22;27809;51.864;5.646;2023-03-01T09:09:59;11.80;5.00
42141;DHT22;27809;51.864;5.646;2023-03-01T09:12:25;12.20;4.80
42141;DHT22;27809;51.864;5.646;2023-03-01T09:14:50;11.70;6.40
42141;DHT22;27809;51.864;5.646;2023-03-01T09:17:16;13.30;5.60
42141;DHT22;27809;51.864;5.646;2023-03-01T09:19:41;12.00;2.80
42141;DHT22;27809;51.864;5.646;2023-03-01T09:22:07;12.20;3.40
42141;DHT22;27809;51.864;5.646;2023-03-01T09:24:33;12.50;2.70
42141;DHT22;27809;51.864;5.646;2023-03-01T09:26:59;12.50;3.60
42141;DHT22;27809;51.864;5.646;2023-03-01T09:29:24;13.00;2.70
42141;DHT22;27809;51.864;5.646;2023-03-01T09:31:51;13.00;1.00
42141;DHT22;27809;51.864;5.646;2023-03-01T09:34:20;12.20;1.40
42141;DHT22;27809;51.864;5.646;2023-03-01T09:36:48;13.00;1.70
42141;DHT22;27809;51.864;5.646;2023-03-01T09:39:14;12.60;1.60
42141;DHT22;27809;51.864;5.646;2023-03-01T09:46:56;13.90;1.00
42141;DHT22;27809;51.864;5.646;2023-03-01T09:49:28;14.00;1.00
42141;DHT22;27809;51.864;5.646;2023-03-01T09:52:03;14.30;1.00
42141;DHT22;27809;51.864;5.646;2023-03-01T09:54:32;13.80;1.00
42141;DHT22;27809;51.864;5.646;2023-03-01T09:57:18;14.20;1.00
42141;DHT22;27809;51.864;5.646;2023-03-01T10:00:01;11.80;1.00
42141;DHT22;27809;51.864;5.646;2023-03-01T10:02:43;11.70;1.00
42141;DHT22;27809;51.864;5.646;2023-03-01T10:08:24;12.40;1.00
42141;DHT22;27809;51.864;5.646;2023-03-01T10:10:52;13.00;1.00
42141;DHT22;27809;51.864;5.646;2023-03-01T10:16:13;13.90;1.00
42141;DHT22;27809;51.864;5.646;2023-03-01T10:18:40;13.20;1.00
42141;DHT22;27809;51.864;5.646;2023-03-01T10:21:17;13.90;1.00
42141;DHT22;27809;51.864;5.646;2023-03-01T10:23:44;14.00;1.00
42141;DHT22;27809;51.864;5.646;2023-03-01T10:31:27;13.80;1.00
42141;DHT22;27809;51.864;5.646;2023-03-01T10:34:04;12.80;1.00
42141;DHT22;27809;51.864;5.646;2023-03-01T10:36:32;12.80;1.00
42141;DHT22;27809;51.864;5.646;2023-03-01T10:38:59;12.80;1.00
42141;DHT22;27809;51.864;5.646;2023-03-01T10:41:26;13.00;1.00
42141;DHT22;27809;51.864;5.646;2023-03-01T10:43:57;13.10;1.00
42141;DHT22;27809;51.864;5.646;2023-03-01T10:51:33;13.40;1.00
42141;DHT22;27809;51.864;5.646;2023-03-01T10:53:58;13.00;1.00
42141;DHT22;27809;51.864;5.646;2023-03-01T10:56:24;12.80;1.00
42141;DHT22;27809;51.864;5.646;2023-03-01T10:59:05;13.30;1.00
42141;DHT22;27809;51.864;5.646;2023-03-01T11:01:33;14.00;1.00
42141;DHT22;27809;51.864;5.646;2023-03-01T11:04:18;13.90;1.00
42141;DHT22;27809;51.864;5.646;2023-03-01T11:06:43;13.10;1.00
42141;DHT22;27809;51.864;5.646;2023-03-01T11:09:23;11.00;1.00
42141;DHT22;27809;51.864;5.646;2023-03-01T11:11:57;12.80;1.00
42141;DHT22;27809;51.864;5.646;2023-03-01T11:14:36;12.30;1.00
42141;DHT22;27809;51.864;5.646;2023-03-01T11:17:23;12.10;1.00
42141;DHT22;27809;51.864;5.646;2023-03-01T11:22:54;12.00;1.00
42141;DHT22;27809;51.864;5.646;2023-03-01T11:25:29;18.60;2.70
42141;DHT22;27809;51.864;5.646;2023-03-01T11:27:56;22.80;1.00
42141;DHT22;27809;51.864;5.646;2023-03-01T11:30:32;16.00;1.00
42141;DHT22;27809;51.864;5.646;2023-03-01T11:35:37;12.10;1.00
42141;DHT22;27809;51.864;5.646;2023-03-01T11:38:15;15.80;1.00
42141;DHT22;27809;51.864;5.646;2023-03-01T11:40:49;17.00;1.00
42141;DHT22;27809;51.864;5.646;2023-03-01T11:55:51;11.50;1.00
42141;DHT22;27809;51.864;5.646;2023-03-01T12:03:16;12.00;1.00
42141;DHT22;27809;51.864;5.646;2023-03-01T12:08:45;11.70;1.00
42141;DHT22;27809;51.864;5.646;2023-03-01T12:11:36;11.40;1.00
42141;DHT22;27809;51.864;5.646;2023-03-01T12:14:36;11.60;1.00
42141;DHT22;27809;51.864;5.646;2023-03-01T12:17:31;10.80;1.00
42141;DHT22;27809;51.864;5.646;2023-03-01T12:20:18;10.90;1.00
42141;DHT22;27809;51.864;5.646;2023-03-01T12:23:04;13.00;1.00
42141;DHT22;27809;51.864;5.646;2023-03-01T12:25:35;13.30;1.00
42141;DHT22;27809;51.864;5.646;2023-03-01T12:31:02;12.30;1.00
42141;DHT22;27809;51.864;5.646;2023-03-01T12:39:38;13.00;1.00
42141;DHT22;27809;51.864;5.646;2023-03-01T12:50:46;14.60;1.00
42141;DHT22;27809;51.864;5.646;2023-03-01T12:53:23;14.70;1.00
42141;DHT22;27809;51.864;5.646;2023-03-01T12:55:51;14.10;1.00
42141;DHT22;27809;51.864;5.646;2023-03-01T13:07:25;18.90;1.00
42141;DHT22;27809;51.864;5.646;2023-03-01T13:17:53;14.60;1.00
42141;DHT22;27809;51.864;5.646;2023-03-01T13:20:29;16.70;1.00
42141;DHT22;27809;51.864;5.646;2023-03-01T13:23:05;14.60;1.00
42141;DHT22;27809;51.864;5.646;2023-03-01T13:25:31;14.10;1.00
42141;DHT22;27809;51.864;5.646;2023-03-01T13:30:58;11.70;1.00
42141;DHT22;27809;51.864;5.646;2023-03-01T13:41:27;11.70;1.00
42141;DHT22;27809;51.864;5.646;2023-03-01T13:46:38;10.50;1.00
42141;DHT22;27809;51.864;5.646;2023-03-01T13:49:03;11.70;1.00
42141;DHT22;27809;51.864;5.646;2023-03-01T13:51:29;13.30;1.00
42141;DHT22;27809;51.864;5.646;2023-03-01T13:53:56;13.60;1.00
42141;DHT22;27809;51.864;5.646;2023-03-01T13:56:28;13.50;1.00
42141;DHT22;27809;51.864;5.646;2023-03-01T13:59:05;12.30;1.00
42141;DHT22;27809;51.864;5.646;2023-03-01T14:01:34;12.10;1.00
42141;DHT22;27809;51.864;5.646;2023-03-01T14:04:00;11.50;1.00
42141;DHT22;27809;51.864;5.646;2023-03-01T14:06:29;11.40;1.00
42141;DHT22;27809;51.864;5.646;2023-03-01T14:09:14;19.30;1.00
42141;DHT22;27809;51.864;5.646;2023-03-01T14:12:15;18.20;1.00
42141;DHT22;27809;51.864;5.646;2023-03-01T14:15:27;15.00;1.00
42141;DHT22;27809;51.864;5.646;2023-03-01T14:20:42;15.90;1.00
42141;DHT22;27809;51.864;5.646;2023-03-01T14:23:14;14.80;1.00
42141;DHT22;27809;51.864;5.646;2023-03-01T14:25:51;12.20;1.00
42141;DHT22;27809;51.864;5.646;2023-03-01T14:28:20;13.80;1.00
42141;DHT22;27809;51.864;5.646;2023-03-01T14:30:50;14.70;1.00
42141;DHT22;27809;51.864;5.646;2023-03-01T14:33:26;15.10;1.00
42141;DHT22;27809;51.864;5.646;2023-03-01T14:38:34;13.20;1.00
42141;DHT22;27809;51.864;5.646;2023-03-01T14:41:03;12.70;1.00
42141;DHT22;27809;51.864;5.646;2023-03-01T14:43:29;12.90;1.00
42141;DHT22;27809;51.864;5.646;2023-03-01T14:45:56;11.90;1.00
42141;DHT22;27809;51.864;5.646;2023-03-01T14:48:21;11.50;1.00
42141;DHT22;27809;51.864;5.646;2023-03-01T14:50:48;11.00;1.00
42141;DHT22;27809;51.864;5.646;2023-03-01T14:53:24;10.10;1.00
42141;DHT22;27809;51.864;5.646;2023-03-01T14:55:53;10.20;1.00
42141;DHT22;27809;51.864;5.646;2023-03-01T14:58:24;9.30;1.00
42141;DHT22;27809;51.864;5.646;2023-03-01T15:00:53;9.20;1.00
42141;DHT22;27809;51.864;5.646;2023-03-01T15:03:32;8.80;1.00
42141;DHT22;27809;51.864;5.646;2023-03-01T15:06:01;8.80;1.00
42141;DHT22;27809;51.864;5.646;2023-03-01T15:08:27;8.20;1.00
42141;DHT22;27809;51.864;5.646;2023-03-01T15:13:39;8.20;1.00
42141;DHT22;27809;51.864;5.646;2023-03-01T15:16:07;8.10;1.00
42141;DHT22;27809;51.864;5.646;2023-03-01T15:18:34;9.40;1.00
42141;DHT22;27809;51.864;5.646;2023-03-01T15:21:19;8.40;1.00
42141;DHT22;27809;51.864;5.646;2023-03-01T15:23:54;8.10;1.00
42141;DHT22;27809;51.864;5.646;2023-03-01T15:26:30;8.10;1.00
42141;DHT22;27809;51.864;5.646;2023-03-01T15:28:58;8.00;1.30
42141;DHT22;27809;51.864;5.646;2023-03-01T15:31:27;7.90;1.00
42141;DHT22;27809;51.864;5.646;2023-03-01T15:34:08;7.70;1.00
42141;DHT22;27809;51.864;5.646;2023-03-01T15:36:41;7.90;1.10
42141;DHT22;27809;51.864;5.646;2023-03-01T15:39:36;7.80;1.40
42141;DHT22;27809;51.864;5.646;2023-03-01T15:44:34;7.60;1.70
42141;DHT22;27809;51.864;5.646;2023-03-01T15:47:00;7.40;2.30
42141;DHT22;27809;51.864;5.646;2023-03-01T15:49:39;7.40;1.70
42141;DHT22;27809;51.864;5.646;2023-03-01T15:52:11;7.40;2.00
42141;DHT22;27809;51.864;5.646;2023-03-01T15:54:39;7.30;1.30
42141;DHT22;27809;51.864;5.646;2023-03-01T15:57:12;7.20;1.00
42141;DHT22;27809;51.864;5.646;2023-03-01T15:59:37;7.10;2.10
42141;DHT22;27809;51.864;5.646;2023-03-01T16:02:09;7.10;1.00
42141;DHT22;27809;51.864;5.646;2023-03-01T16:04:34;7.00;1.20
42141;DHT22;27809;51.864;5.646;2023-03-01T16:07:00;6.90;1.90
42141;DHT22;27809;51.864;5.646;2023-03-01T16:09:26;6.80;1.00
42141;DHT22;27809;51.864;5.646;2023-03-01T16:11:52;6.60;2.10
42141;DHT22;27809;51.864;5.646;2023-03-01T16:14:19;6.70;1.90
42141;DHT22;27809;51.864;5.646;2023-03-01T16:16:45;6.70;2.70
42141;DHT22;27809;51.864;5.646;2023-03-01T16:19:11;6.60;2.70
42141;DHT22;27809;51.864;5.646;2023-03-01T16:21:37;6.40;2.20
42141;DHT22;27809;51.864;5.646;2023-03-01T16:24:03;6.80;4.80
42141;DHT22;27809;51.864;5.646;2023-03-01T16:26:29;6.60;3.50
42141;DHT22;27809;51.864;5.646;2023-03-01T16:28:56;6.40;4.30
42141;DHT22;27809;51.864;5.646;2023-03-01T16:31:22;6.20;5.00
42141;DHT22;27809;51.864;5.646;2023-03-01T16:33:48;6.10;5.50
42141;DHT22;27809;51.864;5.646;2023-03-01T16:36:23;6.20;5.30
42141;DHT22;27809;51.864;5.646;2023-03-01T16:38:50;6.60;5.40
42141;DHT22;27809;51.864;5.646;2023-03-01T16:41:18;6.30;4.30
42141;DHT22;27809;51.864;5.646;2023-03-01T16:43:45;6.00;4.50
42141;DHT22;27809;51.864;5.646;2023-03-01T16:46:15;6.00;5.40
42141;DHT22;27809;51.864;5.646;2023-03-01T16:48:41;5.90;5.40
42141;DHT22;27809;51.864;5.646;2023-03-01T16:51:08;5.80;6.00
42141;DHT22;27809;51.864;5.646;2023-03-01T16:53:35;5.80;5.20
42141;DHT22;27809;51.864;5.646;2023-03-01T16:56:06;5.80;5.30
42141;DHT22;27809;51.864;5.646;2023-03-01T16:58:33;5.70;6.10
42141;DHT22;27809;51.864;5.646;2023-03-01T17:01:06;5.60;6.20
42141;DHT22;27809;51.864;5.646;2023-03-01T17:03:32;5.50;6.90
42141;DHT22;27809;51.864;5.646;2023-03-01T17:06:02;5.50;7.30
42141;DHT22;27809;51.864;5.646;2023-03-01T17:08:27;5.40;7.10
42141;DHT22;27809;51.864;5.646;2023-03-01T17:10:53;5.40;7.90
42141;DHT22;27809;51.864;5.646;2023-03-01T17:13:18;5.30;8.60
42141;DHT22;27809;51.864;5.646;2023-03-01T17:15:44;5.20;8.90
42141;DHT22;27809;51.864;5.646;2023-03-01T17:18:09;5.20;9.20
42141;DHT22;27809;51.864;5.646;2023-03-01T17:20:35;5.10;9.10
42141;DHT22;27809;51.864;5.646;2023-03-01T17:23:01;5.10;8.70
42141;DHT22;27809;51.864;5.646;2023-03-01T17:25:27;5.00;9.80
42141;DHT22;27809;51.864;5.646;2023-03-01T17:27:53;5.00;9.30
42141;DHT22;27809;51.864;5.646;2023-03-01T17:30:19;4.90;9.60
42141;DHT22;27809;51.864;5.646;2023-03-01T17:32:44;4.80;10.30
42141;DHT22;27809;51.864;5.646;2023-03-01T17:35:10;4.70;10.80
42141;DHT22;27809;51.864;5.646;2023-03-01T17:37:38;4.60;11.20
42141;DHT22;27809;51.864;5.646;2023-03-01T17:40:04;4.50;12.00
42141;DHT22;27809;51.864;5.646;2023-03-01T17:42:31;4.30;12.70